Terminal Aerodrome Forecast
Issued by NWS Brownsville, TX

Home | Current Version | Previous Version | Text Only | Print | Product List | Glossary On
Versions: 1 2 3 4 5 6 7 8 9 10 11 12 13 14 15 16 17 18 19 20 21
000
FTUS44 KBRO 022338
TAFMFE
TAF
KMFE 022338Z 0300/0324 13010KT P6SM OVC040
     FM030300 14009KT P6SM OVC015
     FM031500 16015G22KT P6SM OVC025
     FM031800 16018G25KT P6SM BKN040=

USA.gov is the U.S. government's official web portal to all federal, state and local government web resources and services.